createdAt,value
2018-05-15T00:04:02.656Z,149.20
2018-05-15T00:06:31.286Z,152.83
2018-05-15T00:08:59.507Z,159.63
2018-05-15T00:11:27.774Z,166.30
2018-05-15T00:13:56.103Z,152.10
2018-05-15T00:16:24.367Z,171.93
2018-05-15T00:18:52.703Z,185.40
2018-05-15T00:21:20.942Z,167.50
2018-05-15T00:23:49.198Z,152.40
2018-05-15T00:26:17.406Z,177.37
2018-05-15T00:28:45.679Z,162.50
2018-05-15T00:31:13.866Z,180.47
2018-05-15T00:33:42.383Z,168.47
2018-05-15T00:36:10.650Z,164.73
2018-05-15T00:38:38.838Z,202.97
2018-05-15T00:41:07.027Z,186.37
2018-05-15T00:43:35.202Z,172.47
2018-05-15T00:46:03.377Z,181.40
2018-05-15T00:48:31.792Z,190.13
2018-05-15T00:51:00.070Z,187.23
2018-05-15T00:53:28.239Z,183.73
2018-05-15T00:55:56.552Z,205.10
2018-05-15T00:58:24.734Z,199.50
2018-05-15T01:00:53.258Z,208.23
2018-05-15T01:03:21.995Z,206.07
2018-05-15T01:05:50.224Z,212.07
2018-05-15T01:08:18.432Z,212.83
2018-05-15T01:10:46.702Z,216.47
2018-05-15T01:13:14.979Z,240.60
2018-05-15T01:15:43.163Z,268.53
2018-05-15T01:18:11.358Z,241.67
2018-05-15T01:20:39.550Z,245.93
2018-05-15T01:23:07.831Z,211.87
2018-05-15T01:25:36.015Z,251.17
2018-05-15T01:28:04.227Z,399.83
2018-05-15T01:30:32.491Z,317.43
2018-05-15T01:33:00.692Z,384.87
2018-05-15T01:35:28.962Z,277.03
2018-05-15T01:37:57.146Z,233.73
2018-05-15T01:40:25.347Z,380.47
2018-05-15T01:42:53.632Z,355.47
2018-05-15T01:45:21.818Z,282.33
2018-05-15T01:47:50.018Z,210.43
2018-05-15T01:50:18.290Z,273.47
2018-05-15T01:52:46.484Z,257.83
2018-05-15T01:55:14.679Z,258.60
2018-05-15T01:57:42.950Z,240.93
2018-05-15T02:00:11.152Z,253.43
2018-05-15T02:02:39.437Z,236.87
2018-05-15T02:05:07.710Z,214.23
2018-05-15T02:07:35.904Z,215.80
2018-05-15T02:10:04.119Z,216.70
2018-05-15T02:12:32.367Z,196.47
2018-05-15T02:15:00.559Z,224.90
2018-05-15T02:17:28.750Z,195.33
2018-05-15T02:19:56.938Z,162.13
2018-05-15T02:22:25.127Z,158.70
2018-05-15T02:24:53.318Z,144.47
2018-05-15T02:27:21.602Z,153.87
2018-05-15T02:29:49.882Z,158.30
2018-05-15T02:32:18.096Z,149.30
2018-05-15T02:34:46.370Z,157.63
2018-05-15T02:37:14.652Z,147.57
2018-05-15T02:39:42.847Z,140.80
2018-05-15T02:42:11.131Z,157.03
2018-05-15T02:44:39.407Z,130.07
2018-05-15T02:47:07.606Z,151.43
2018-05-15T02:49:35.887Z,153.30
2018-05-15T02:52:04.098Z,156.13
2018-05-15T02:54:32.380Z,156.00
2018-05-15T02:57:00.654Z,146.87
2018-05-15T02:59:28.838Z,145.37
2018-05-15T03:01:57.054Z,138.83
2018-05-15T03:04:25.337Z,140.97
2018-05-15T03:06:53.507Z,138.07
2018-05-15T03:09:21.690Z,144.00
2018-05-15T03:11:49.978Z,149.07
2018-05-15T03:14:18.158Z,136.63
2018-05-15T03:16:46.359Z,145.47
2018-05-15T03:19:14.635Z,140.93
2018-05-15T03:21:42.830Z,159.83
2018-05-15T03:24:11.026Z,145.63
2018-05-15T03:26:39.294Z,143.50
2018-05-15T03:29:07.491Z,135.53
2018-05-15T03:31:35.787Z,140.00
2018-05-15T03:34:03.982Z,147.13
2018-05-15T03:36:32.258Z,148.50
2018-05-15T03:39:00.552Z,155.83
2018-05-15T03:41:28.824Z,149.70
2018-05-15T03:43:57.021Z,147.07
2018-05-15T03:46:25.229Z,137.63
2018-05-15T03:48:53.493Z,139.10
2018-05-15T03:51:21.679Z,138.57
2018-05-15T03:53:49.870Z,140.17
2018-05-15T03:57:47.331Z,144.40
2018-05-15T04:00:24.471Z,135.30
2018-05-15T04:04:01.369Z,127.23
2018-05-15T04:06:41.035Z,147.47
2018-05-15T04:09:09.302Z,136.33
2018-05-15T04:11:37.595Z,139.27
2018-05-15T04:14:05.891Z,150.60
2018-05-15T04:16:34.166Z,133.73
2018-05-15T04:19:02.358Z,133.30
2018-05-15T04:21:30.650Z,136.63
2018-05-15T04:23:58.918Z,134.00
2018-05-15T04:26:27.120Z,135.73
2018-05-15T04:28:55.530Z,139.27
2018-05-15T04:31:23.786Z,141.80
2018-05-15T04:33:51.975Z,125.87
2018-05-15T04:36:20.249Z,136.00
2018-05-15T04:38:48.454Z,151.13
2018-05-15T04:41:16.642Z,123.97
2018-05-15T04:43:44.889Z,122.40
2018-05-15T04:46:13.110Z,125.13
2018-05-15T04:48:41.307Z,107.27
2018-05-15T04:51:09.526Z,119.67
2018-05-15T04:53:37.774Z,114.80
2018-05-15T04:56:05.966Z,119.67
2018-05-15T04:58:34.183Z,112.87
2018-05-15T05:01:02.433Z,105.63
2018-05-15T05:03:30.603Z,115.03
2018-05-15T05:05:58.813Z,107.03
2018-05-15T05:08:27.104Z,146.40
2018-05-15T05:10:55.282Z,117.87
2018-05-15T05:13:23.479Z,111.40
2018-05-15T05:15:51.787Z,114.53
2018-05-15T05:18:20.174Z,115.17
2018-05-15T05:20:48.457Z,100.03
2018-05-15T05:23:16.961Z,98.27
2018-05-15T05:25:45.228Z,94.20
2018-05-15T05:28:13.580Z,96.57
2018-05-15T05:30:41.790Z,98.20
2018-05-15T05:33:10.257Z,95.30
2018-05-15T05:35:38.490Z,89.87
2018-05-15T05:38:06.777Z,102.53
2018-05-15T05:40:34.952Z,110.87
2018-05-15T05:43:03.155Z,97.97
2018-05-15T05:45:31.438Z,99.53
2018-05-15T05:47:59.726Z,89.33
2018-05-15T05:50:27.914Z,96.33
2018-05-15T05:52:56.090Z,97.30
2018-05-15T05:55:24.274Z,86.87
2018-05-15T05:57:52.479Z,77.13
2018-05-15T06:00:20.745Z,78.00
2018-05-15T06:02:48.939Z,83.10
2018-05-15T06:05:17.130Z,74.53
2018-05-15T06:07:45.410Z,83.97
2018-05-15T06:10:13.587Z,75.40
2018-05-15T06:12:41.770Z,69.67
2018-05-15T06:15:09.974Z,70.93
2018-05-15T06:17:38.178Z,71.17
2018-05-15T06:20:06.443Z,80.87
2018-05-15T06:22:34.610Z,85.40
2018-05-15T06:25:02.774Z,92.50
2018-05-15T06:27:31.114Z,86.03
2018-05-15T06:29:59.306Z,73.33
2018-05-15T06:32:27.561Z,72.07
2018-05-15T06:34:55.666Z,90.90
2018-05-15T06:37:23.857Z,86.80
2018-05-15T06:39:52.048Z,82.23
2018-05-15T06:42:20.239Z,79.30
2018-05-15T06:44:48.624Z,82.57
2018-05-15T06:47:16.806Z,94.83
2018-05-15T06:49:45.019Z,80.60
2018-05-15T06:52:13.298Z,85.47
2018-05-15T06:54:41.474Z,88.97
2018-05-15T06:57:09.670Z,83.90
2018-05-15T06:59:37.970Z,88.17
2018-05-15T07:02:06.294Z,84.27
2018-05-15T07:04:34.503Z,79.10
2018-05-15T07:07:02.686Z,97.07
2018-05-15T07:09:31.026Z,93.27
2018-05-15T07:11:59.386Z,79.83
2018-05-15T07:14:27.574Z,87.03
2018-05-15T07:16:55.784Z,80.10
2018-05-15T07:19:24.124Z,75.63
2018-05-15T07:21:52.414Z,68.83
2018-05-15T07:24:20.594Z,80.23
2018-05-15T07:26:48.838Z,76.53
2018-05-15T07:29:17.162Z,80.17
2018-05-15T07:31:45.375Z,69.80
2018-05-15T07:34:13.735Z,67.77
2018-05-15T07:36:41.938Z,63.60
2018-05-15T07:39:10.119Z,75.77
2018-05-15T07:41:38.354Z,74.40
2018-05-15T07:44:06.529Z,61.40
2018-05-15T07:46:34.722Z,59.50
2018-05-15T07:49:02.890Z,59.33
2018-05-15T07:51:31.135Z,59.83
2018-05-15T07:53:59.366Z,53.50
2018-05-15T07:56:27.588Z,50.17
2018-05-15T07:58:55.859Z,53.80
2018-05-15T08:01:24.038Z,56.50
2018-05-15T08:03:52.263Z,58.03
2018-05-15T08:06:20.544Z,52.57
2018-05-15T08:08:48.798Z,57.03
2018-05-15T08:11:17.137Z,50.40
2018-05-15T08:13:46.439Z,42.20
2018-05-15T08:16:14.737Z,48.13
2018-05-15T08:18:43.047Z,49.47
2018-05-15T08:21:11.270Z,51.00
2018-05-15T08:23:39.470Z,45.60
2018-05-15T08:26:07.686Z,42.33
2018-05-15T08:28:35.863Z,47.63
2018-05-15T08:31:04.126Z,48.27
2018-05-15T08:33:32.397Z,50.83
2018-05-15T08:36:00.615Z,42.10
2018-05-15T08:38:29.085Z,41.30
2018-05-15T08:40:57.314Z,39.60
2018-05-15T08:43:25.598Z,40.60
2018-05-15T08:45:53.970Z,42.53
2018-05-15T08:48:22.369Z,52.93
2018-05-15T08:50:50.543Z,45.90
2018-05-15T08:53:18.774Z,43.10
2018-05-15T08:55:46.975Z,43.40
2018-05-15T08:58:15.187Z,46.90
2018-05-15T09:00:43.403Z,55.87
2018-05-15T09:03:11.694Z,42.03
2018-05-15T09:05:39.919Z,42.70
2018-05-15T09:08:08.197Z,38.00
2018-05-15T09:10:36.457Z,39.73
2018-05-15T09:13:04.909Z,57.17
2018-05-15T09:15:33.070Z,41.77
2018-05-15T09:18:01.428Z,40.03
2018-05-15T09:20:29.700Z,38.53
2018-05-15T09:22:57.962Z,44.30
2018-05-15T09:25:26.495Z,35.90
2018-05-15T09:27:54.859Z,41.93
2018-05-15T09:30:23.319Z,38.60
2018-05-15T09:32:51.974Z,41.93
2018-05-15T09:35:20.331Z,31.83
2018-05-15T09:37:48.536Z,29.37
2018-05-15T09:40:16.759Z,46.57
2018-05-15T09:42:45.007Z,32.50
2018-05-15T09:45:13.207Z,31.10
2018-05-15T09:47:41.399Z,53.00
2018-05-15T09:50:09.623Z,37.37
2018-05-15T09:52:37.814Z,36.50
2018-05-15T09:55:06.059Z,35.77
2018-05-15T09:57:34.259Z,30.23
2018-05-15T10:00:02.443Z,36.13
2018-05-15T10:02:30.638Z,33.77
2018-05-15T10:04:58.903Z,32.10
2018-05-15T10:07:27.109Z,32.23
2018-05-15T10:09:55.330Z,36.00
2018-05-15T10:12:23.546Z,34.30
2018-05-15T10:14:51.812Z,33.93
2018-05-15T10:17:20.015Z,29.50
2018-05-15T10:19:48.287Z,33.77
2018-05-15T10:22:16.519Z,33.43
2018-05-15T10:24:44.761Z,30.30
2018-05-15T10:27:12.940Z,42.07
2018-05-15T10:29:41.974Z,25.93
2018-05-15T10:32:10.174Z,25.43
2018-05-15T10:34:38.383Z,30.23
2018-05-15T10:37:06.578Z,27.97
2018-05-15T10:39:34.886Z,35.57
2018-05-15T10:42:03.066Z,55.67
2018-05-15T10:44:31.235Z,34.93
2018-05-15T10:46:59.423Z,31.43
2018-05-15T10:49:27.747Z,35.80
2018-05-15T10:51:55.997Z,28.00
2018-05-15T10:54:24.188Z,34.67
2018-05-15T10:56:52.438Z,30.50
2018-05-15T10:59:20.713Z,31.97
2018-05-15T11:01:48.967Z,40.50
2018-05-15T11:04:17.302Z,32.23
2018-05-15T11:06:45.600Z,36.60
2018-05-15T11:09:13.803Z,32.90
2018-05-15T11:11:42.010Z,34.13
2018-05-15T11:14:10.298Z,40.47
2018-05-15T11:16:38.495Z,37.90
2018-05-15T11:19:15.599Z,30.03
2018-05-15T11:21:55.158Z,30.30
2018-05-15T11:24:32.335Z,35.53
2018-05-15T11:27:00.664Z,27.50
2018-05-15T11:29:28.859Z,24.33
2018-05-15T11:31:57.031Z,27.90
2018-05-15T11:34:25.220Z,26.97
2018-05-15T11:36:53.408Z,31.17
2018-05-15T11:39:21.602Z,37.40
2018-05-15T11:41:49.843Z,35.83
2018-05-15T11:44:17.962Z,34.20
2018-05-15T11:46:46.132Z,33.27
2018-05-15T11:49:14.943Z,34.10
2018-05-15T11:51:43.170Z,29.73
2018-05-15T11:54:10.743Z,26.10
2018-05-15T11:56:38.960Z,27.10
2018-05-15T11:59:07.126Z,33.80
2018-05-15T12:01:35.294Z,28.27
2018-05-15T12:04:03.534Z,36.23
2018-05-15T12:06:31.945Z,33.50
2018-05-15T12:09:00.045Z,30.63
2018-05-15T12:11:28.262Z,29.50
2018-05-15T12:13:56.439Z,33.67
2018-05-15T12:16:24.623Z,25.50
2018-05-15T12:18:52.810Z,43.17
2018-05-15T12:21:20.994Z,34.30
2018-05-15T12:23:49.183Z,39.47
2018-05-15T12:26:17.382Z,29.60
2018-05-15T12:28:45.670Z,28.10
2018-05-15T12:31:13.943Z,22.90
2018-05-15T12:33:42.217Z,21.27
2018-05-15T12:36:10.382Z,20.87
2018-05-15T12:38:38.571Z,20.03
2018-05-15T12:41:06.771Z,17.83
2018-05-15T12:43:34.943Z,18.97
2018-05-15T12:46:03.115Z,22.73
2018-05-15T12:48:31.340Z,21.90
2018-05-15T12:50:59.544Z,27.63
2018-05-15T12:53:27.820Z,33.67
2018-05-15T12:55:56.027Z,17.43
2018-05-15T12:58:24.254Z,16.33
2018-05-15T13:00:52.410Z,19.43
2018-05-15T13:03:20.603Z,17.67
2018-05-15T13:05:48.797Z,16.77
2018-05-15T13:08:16.985Z,18.60
2018-05-15T13:10:45.179Z,18.57
2018-05-15T13:13:13.415Z,17.70
2018-05-15T13:15:41.602Z,26.63
2018-05-15T13:18:09.806Z,16.97
2018-05-15T13:20:37.982Z,14.80
2018-05-15T13:23:06.264Z,16.70
2018-05-15T13:25:34.457Z,15.10
2018-05-15T13:28:02.623Z,12.90
2018-05-15T13:30:30.838Z,13.70
2018-05-15T13:32:59.199Z,17.20
2018-05-15T13:35:27.375Z,16.53
2018-05-15T13:37:55.478Z,14.47
2018-05-15T13:40:23.667Z,15.50
2018-05-15T13:42:51.936Z,13.93
2018-05-15T13:45:20.166Z,14.33
2018-05-15T13:47:48.362Z,11.37
2018-05-15T13:50:16.542Z,10.43
2018-05-15T13:52:44.798Z,14.47
2018-05-15T13:55:13.015Z,14.40
2018-05-15T13:57:41.190Z,14.57
2018-05-15T14:00:09.367Z,10.57
2018-05-15T14:02:37.671Z,17.07
2018-05-15T14:05:05.905Z,12.50
2018-05-15T14:07:34.074Z,13.60
2018-05-15T14:10:02.275Z,16.60
2018-05-15T14:12:30.501Z,16.33
2018-05-15T14:14:58.699Z,15.73
2018-05-15T14:17:26.891Z,10.10
2018-05-15T14:19:55.169Z,18.33
2018-05-15T14:22:23.355Z,24.30
2018-05-15T14:24:51.533Z,11.37
2018-05-15T14:27:19.694Z,13.37
2018-05-15T14:29:47.915Z,9.77
2018-05-15T14:32:16.099Z,16.33
2018-05-15T14:34:44.274Z,12.40
2018-05-15T14:37:12.450Z,11.50
2018-05-15T14:39:40.629Z,12.93
2018-05-15T14:42:20.070Z,12.90
2018-05-15T14:44:48.331Z,22.03
2018-05-15T14:47:16.507Z,15.20
2018-05-15T14:49:44.758Z,9.27
2018-05-15T14:52:12.979Z,9.60
2018-05-15T14:54:41.152Z,10.93
2018-05-15T14:57:09.331Z,14.40
2018-05-15T14:59:37.526Z,25.40
2018-05-15T15:02:05.719Z,9.80
2018-05-15T15:04:33.903Z,10.67
2018-05-15T15:07:02.123Z,16.37
2018-05-15T15:09:30.299Z,17.50
2018-05-15T15:11:58.505Z,16.40
2018-05-15T15:14:26.691Z,12.57
2018-05-15T15:16:54.928Z,14.87
2018-05-15T15:19:23.110Z,11.33
2018-05-15T15:21:51.331Z,11.67
2018-05-15T15:24:19.503Z,13.37
2018-05-15T15:26:47.678Z,12.13
2018-05-15T15:29:15.937Z,12.77
2018-05-15T15:31:44.047Z,16.03
2018-05-15T15:34:12.252Z,12.30
2018-05-15T15:36:40.451Z,21.13
2018-05-15T15:39:08.618Z,12.77
2018-05-15T15:41:36.802Z,9.73
2018-05-15T15:44:05.061Z,12.43
2018-05-15T15:46:33.258Z,11.90
2018-05-15T15:49:01.442Z,11.83
2018-05-15T15:51:29.756Z,14.40
2018-05-15T15:53:58.036Z,10.17
2018-05-15T15:56:26.215Z,10.37
2018-05-15T15:58:54.411Z,10.70
2018-05-15T16:01:22.588Z,10.83
2018-05-15T16:03:50.871Z,12.33
2018-05-15T16:06:19.119Z,13.93
2018-05-15T16:08:47.343Z,13.50
2018-05-15T16:11:15.563Z,21.63
2018-05-15T16:13:43.738Z,16.83
2018-05-15T16:16:11.940Z,17.10
2018-05-15T16:18:40.162Z,17.27
2018-05-15T16:21:08.346Z,16.87
2018-05-15T16:23:36.551Z,13.70
2018-05-15T16:26:04.727Z,12.77
2018-05-15T16:28:32.965Z,11.97
2018-05-15T16:31:01.115Z,15.43
2018-05-15T16:33:29.408Z,10.87
2018-05-15T16:35:57.610Z,11.57
2018-05-15T16:38:25.786Z,14.10
2018-05-15T16:40:53.963Z,11.53
2018-05-15T16:43:22.147Z,15.70
2018-05-15T16:45:50.642Z,12.50
2018-05-15T16:48:18.819Z,10.30
2018-05-15T16:50:46.986Z,11.70
2018-05-15T16:53:15.292Z,25.80
2018-05-15T16:55:43.518Z,10.80
2018-05-15T16:58:11.798Z,11.47
2018-05-15T17:00:40.082Z,13.73
2018-05-15T17:03:08.275Z,18.20
2018-05-15T17:05:36.458Z,14.53
2018-05-15T17:08:04.852Z,14.20
2018-05-15T17:10:32.930Z,19.30
2018-05-15T17:13:01.122Z,17.80
2018-05-15T17:15:29.283Z,12.10
2018-05-15T17:17:57.491Z,14.83
2018-05-15T17:20:25.670Z,14.20
2018-05-15T17:22:53.866Z,14.53
2018-05-15T17:25:22.117Z,17.13
2018-05-15T17:27:50.255Z,17.53
2018-05-15T17:30:18.530Z,15.30
2018-05-15T17:32:46.712Z,16.63
2018-05-15T17:35:14.915Z,22.27
2018-05-15T17:37:43.182Z,21.67
2018-05-15T17:40:11.375Z,25.10
2018-05-15T17:42:39.572Z,12.70
2018-05-15T17:45:07.739Z,13.97
2018-05-15T17:47:35.895Z,18.80
2018-05-15T17:50:04.129Z,12.20
2018-05-15T17:52:32.307Z,10.33
2018-05-15T17:55:00.483Z,15.27
2018-05-15T17:57:28.661Z,17.77
2018-05-15T17:59:56.890Z,19.93
2018-05-15T18:02:25.014Z,16.37
2018-05-15T18:04:53.238Z,21.17
2018-05-15T18:07:21.451Z,14.23
2018-05-15T18:09:49.614Z,18.33
2018-05-15T18:12:17.795Z,17.10
2018-05-15T18:14:45.959Z,18.23
2018-05-15T18:17:14.131Z,16.47
2018-05-15T18:19:42.331Z,16.90
2018-05-15T18:22:10.567Z,13.20
2018-05-15T18:24:38.831Z,15.53
2018-05-15T18:27:07.104Z,14.27
2018-05-15T18:29:35.330Z,15.90
2018-05-15T18:32:03.613Z,15.87
2018-05-15T18:34:31.915Z,17.40
2018-05-15T18:37:00.210Z,12.77
2018-05-15T18:39:28.470Z,14.83
2018-05-15T18:41:56.751Z,16.57
2018-05-15T18:44:24.938Z,13.27
2018-05-15T18:46:53.231Z,15.20
2018-05-15T18:49:21.406Z,22.00
2018-05-15T18:51:49.611Z,17.93
2018-05-15T18:54:17.886Z,18.00
2018-05-15T18:56:46.083Z,15.33
2018-05-15T18:59:14.267Z,16.33
2018-05-15T19:01:42.458Z,13.13
2018-05-15T19:04:10.639Z,12.80
2018-05-15T19:06:38.822Z,23.13
2018-05-15T19:09:07.019Z,18.73
2018-05-15T19:11:35.298Z,16.00
2018-05-15T19:14:03.488Z,22.87
2018-05-15T19:16:31.667Z,16.83
2018-05-15T19:18:59.851Z,16.17
2018-05-15T19:21:28.050Z,15.53
2018-05-15T19:23:56.225Z,16.10
2018-05-15T19:26:24.410Z,12.93
2018-05-15T19:28:52.607Z,27.10
2018-05-15T19:31:25.047Z,105.07
2018-05-15T19:33:53.294Z,48.33
2018-05-15T19:36:22.083Z,59.17
2018-05-15T19:38:54.526Z,41.47
2018-05-15T19:41:22.750Z,48.30
2018-05-15T19:43:50.932Z,32.03
2018-05-15T19:46:19.159Z,19.27
2018-05-15T19:48:47.406Z,14.23
2018-05-15T19:51:15.619Z,16.13
2018-05-15T19:53:43.879Z,10.93
2018-05-15T19:56:12.067Z,21.60
2018-05-15T19:58:40.258Z,15.67
2018-05-15T20:01:08.447Z,11.23
2018-05-15T20:03:36.645Z,11.13
2018-05-15T20:06:04.930Z,11.73
2018-05-15T20:08:33.206Z,17.10
2018-05-15T20:11:01.403Z,12.40
2018-05-15T20:13:29.679Z,11.93
2018-05-15T20:15:57.894Z,14.93
2018-05-15T20:18:26.087Z,10.20
2018-05-15T20:20:54.421Z,11.57
2018-05-15T20:23:22.634Z,10.83
2018-05-15T20:25:50.806Z,16.23
2018-05-15T20:28:19.020Z,12.57
2018-05-15T20:30:47.186Z,12.97
2018-05-15T20:33:15.404Z,10.33
2018-05-15T20:35:43.678Z,19.70
2018-05-15T20:38:11.855Z,15.10
2018-05-15T20:40:40.164Z,13.07
2018-05-15T20:43:08.474Z,16.40
2018-05-15T20:45:36.637Z,20.57
2018-05-15T20:48:04.943Z,15.03
2018-05-15T20:50:33.214Z,13.00
2018-05-15T20:53:01.484Z,12.90
2018-05-15T20:55:29.651Z,13.93
2018-05-15T20:57:57.859Z,13.90
2018-05-15T21:00:26.046Z,12.00
2018-05-15T21:02:54.231Z,14.67
2018-05-15T21:05:22.430Z,23.53
2018-05-15T21:07:50.706Z,14.40
2018-05-15T21:10:18.938Z,15.07
2018-05-15T21:12:47.190Z,14.60
2018-05-15T21:15:15.548Z,14.17
2018-05-15T21:17:43.668Z,17.00
2018-05-15T21:20:11.959Z,18.90
2018-05-15T21:22:40.116Z,22.90
2018-05-15T21:25:08.306Z,22.80
2018-05-15T21:27:36.526Z,14.70
2018-05-15T21:30:04.786Z,23.33
2018-05-15T21:32:32.974Z,19.17
2018-05-15T21:35:01.182Z,18.07
2018-05-15T21:37:29.489Z,21.97
2018-05-15T21:39:57.774Z,19.17
2018-05-15T21:42:26.065Z,15.57
2018-05-15T21:44:54.346Z,19.60
2018-05-15T21:47:22.627Z,20.83
2018-05-15T21:49:50.806Z,18.40
2018-05-15T21:52:19.090Z,20.60
2018-05-15T21:54:47.287Z,17.60
2018-05-15T21:57:15.562Z,25.87
2018-05-15T21:59:43.781Z,20.27
2018-05-15T22:02:12.083Z,21.93
2018-05-15T22:04:40.357Z,22.47
2018-05-15T22:07:08.639Z,23.97
2018-05-15T22:09:36.890Z,20.77
2018-05-15T22:12:16.335Z,25.37
2018-05-15T22:14:55.683Z,22.40
2018-05-15T22:17:35.463Z,21.43
2018-05-15T22:20:14.843Z,20.77
2018-05-15T22:22:42.136Z,19.77
2018-05-15T22:25:10.607Z,20.70
2018-05-15T22:27:39.290Z,22.70
2018-05-15T22:30:07.686Z,19.97
2018-05-15T22:32:35.946Z,19.23
2018-05-15T22:35:04.132Z,19.53
2018-05-15T22:37:32.322Z,19.03
2018-05-15T22:40:00.515Z,22.30
2018-05-15T22:42:28.791Z,20.17
2018-05-15T22:44:57.174Z,20.10
2018-05-15T22:47:25.864Z,23.63
2018-05-15T22:49:54.236Z,20.47
2018-05-15T22:52:22.504Z,18.83
2018-05-15T22:54:50.743Z,19.73
2018-05-15T22:57:18.954Z,19.20
2018-05-15T22:59:47.226Z,17.90
2018-05-15T23:02:15.411Z,19.83
2018-05-15T23:04:43.598Z,23.87
2018-05-15T23:07:11.787Z,22.23
2018-05-15T23:09:40.531Z,25.03
2018-05-15T23:12:08.966Z,21.23
2018-05-15T23:14:37.198Z,23.13
2018-05-15T23:17:05.464Z,27.93
2018-05-15T23:19:33.855Z,16.70
2018-05-15T23:22:02.146Z,25.10
2018-05-15T23:24:30.412Z,21.13
2018-05-15T23:26:58.610Z,21.07
2018-05-15T23:29:26.942Z,18.63
2018-05-15T23:31:55.178Z,21.03
2018-05-15T23:34:23.371Z,21.47
2018-05-15T23:36:51.550Z,27.10
2018-05-15T23:39:19.742Z,25.70
2018-05-15T23:41:47.926Z,20.50
2018-05-15T23:44:16.135Z,20.37
2018-05-15T23:46:44.405Z,27.60
2018-05-15T23:49:12.587Z,22.37
2018-05-15T23:51:40.778Z,20.27
2018-05-15T23:54:09.169Z,22.23
2018-05-15T23:56:37.363Z,19.87
2018-05-15T23:59:05.535Z,23.03
